Flight Number: AVA1537 Duration: 8:30
Departure: St. Peterburg (ULLI) at 13:00 Distance: 3533.05 Nm
Arrival: Vladivostok Knevichi (UHWW) at 21:30 Equipment: B747

Weather Information
St. Peterburg, Russia (ULLI) 59-58N 030-18E 6M Feb 27, 2024 - 12:00 PM EST / 2024.02.27 1700 UTC
Wind: Variable at 2 MPH (2 KT):0
Visibility: greater than 7 mile(s):0
Sky conditions: overcast Temperature: 35 F (2 C) Dew Point: 33 F (1 C) Relative Humidity: 93% Pressure (altimeter): 30.09 in. Hg (1019 hPa)
ob: ULLI 271700Z VRB01MPS 9999 OVC006 02/01 Q1019 R88/290050 NOSIG RMK OBST OBSC cycle: 17
Sunrise: 05:07 Sunset: 15:16 (UTC)

Vladivostok, Russia (UHWW) 43-07N 131-56E 183M Feb 27, 2024 - 12:00 PM EST / 2024.02.27 1700 UTC
Wind: Variable at 2 MPH (2 KT):0
Visibility: greater than 7 mile(s):0 Temperature: 12 F (-11 C) Dew Point: 5 F (-15 C) Relative Humidity: 72% Pressure (altimeter): 30.47 in. Hg (1032 hPa)
ob: UHWW 271700Z VRB01MPS 9999 NSC M11/M15 Q1032 R25L/0///70 NOSIG RMK QFE773 cycle: 17
Sunrise: 21:54 Sunset: 08:53 (UTC)

TAF:2024/02/27 18:21 TAF UHWW 271700Z 2718/2818 02003MPS 9999 BKN020CB BECMG 2722/2724 18003G08MPS BECMG 2813/2817 18003MPS 6000 -SHSN

Previous Pireps for this route
Date Flightnr Aircraft Flight time Fuel used Landing rate On time
2018-06-16AVA1537B74707.38146636-271Yes
(pireps marked green are flown by you)

Route map